sensor_id;sensor_type;location;lat;lon;timestamp;P1;durP1;ratioP1;P2;durP2;ratioP2
14066;SDS011;7108;42.684;23.350;2023-04-01T00:01:10;265.70;;;87.97;;
14066;SDS011;7108;42.684;23.350;2023-04-01T00:03:41;283.43;;;93.20;;
14066;SDS011;7108;42.684;23.350;2023-04-01T00:06:06;263.43;;;87.90;;
14066;SDS011;7108;42.684;23.350;2023-04-01T00:08:32;253.07;;;86.37;;
14066;SDS011;7108;42.684;23.350;2023-04-01T00:10:57;265.40;;;86.97;;
14066;SDS011;7108;42.684;23.350;2023-04-01T00:13:24;257.10;;;84.83;;
14066;SDS011;7108;42.684;23.350;2023-04-01T00:15:51;244.40;;;82.70;;
14066;SDS011;7108;42.684;23.350;2023-04-01T00:18:16;252.83;;;84.73;;
14066;SDS011;7108;42.684;23.350;2023-04-01T00:20:46;259.13;;;86.80;;
14066;SDS011;7108;42.684;23.350;2023-04-01T00:23:13;272.00;;;86.97;;
14066;SDS011;7108;42.684;23.350;2023-04-01T00:25:40;263.90;;;90.20;;
14066;SDS011;7108;42.684;23.350;2023-04-01T00:28:05;251.03;;;83.20;;
14066;SDS011;7108;42.684;23.350;2023-04-01T00:30:31;271.70;;;85.63;;
14066;SDS011;7108;42.684;23.350;2023-04-01T00:32:56;248.37;;;83.30;;
14066;SDS011;7108;42.684;23.350;2023-04-01T00:35:22;251.03;;;84.70;;
14066;SDS011;7108;42.684;23.350;2023-04-01T00:37:47;251.73;;;84.93;;
14066;SDS011;7108;42.684;23.350;2023-04-01T00:43:02;239.77;;;81.20;;
14066;SDS011;7108;42.684;23.350;2023-04-01T00:45:32;250.10;;;80.50;;
14066;SDS011;7108;42.684;23.350;2023-04-01T00:48:07;246.60;;;80.73;;
14066;SDS011;7108;42.684;23.350;2023-04-01T00:50:35;251.93;;;80.27;;
14066;SDS011;7108;42.684;23.350;2023-04-01T00:53:05;265.20;;;85.40;;
14066;SDS011;7108;42.684;23.350;2023-04-01T00:55:32;267.47;;;83.67;;
14066;SDS011;7108;42.684;23.350;2023-04-01T00:58:01;259.93;;;84.77;;
14066;SDS011;7108;42.684;23.350;2023-04-01T01:00:30;264.20;;;83.10;;
14066;SDS011;7108;42.684;23.350;2023-04-01T01:02:56;244.93;;;79.57;;
14066;SDS011;7108;42.684;23.350;2023-04-01T01:05:25;249.17;;;81.47;;
14066;SDS011;7108;42.684;23.350;2023-04-01T01:08:03;252.20;;;81.73;;
14066;SDS011;7108;42.684;23.350;2023-04-01T01:10:40;253.17;;;83.27;;
14066;SDS011;7108;42.684;23.350;2023-04-01T01:13:22;262.63;;;84.90;;
14066;SDS011;7108;42.684;23.350;2023-04-01T01:18:50;252.30;;;82.13;;
14066;SDS011;7108;42.684;23.350;2023-04-01T01:29:26;264.27;;;82.23;;
14066;SDS011;7108;42.684;23.350;2023-04-01T01:37:02;238.93;;;75.67;;
14066;SDS011;7108;42.684;23.350;2023-04-01T01:39:33;255.30;;;80.73;;
14066;SDS011;7108;42.684;23.350;2023-04-01T01:42:02;257.63;;;84.07;;
14066;SDS011;7108;42.684;23.350;2023-04-01T01:44:30;262.13;;;81.63;;
14066;SDS011;7108;42.684;23.350;2023-04-01T01:46:58;246.70;;;78.13;;
14066;SDS011;7108;42.684;23.350;2023-04-01T01:49:25;251.40;;;79.93;;
14066;SDS011;7108;42.684;23.350;2023-04-01T01:51:52;248.23;;;80.20;;
14066;SDS011;7108;42.684;23.350;2023-04-01T01:54:18;240.43;;;79.97;;
14066;SDS011;7108;42.684;23.350;2023-04-01T01:56:44;243.20;;;81.23;;
14066;SDS011;7108;42.684;23.350;2023-04-01T01:59:14;245.40;;;80.07;;
14066;SDS011;7108;42.684;23.350;2023-04-01T02:01:42;234.33;;;79.73;;
14066;SDS011;7108;42.684;23.350;2023-04-01T02:04:12;236.30;;;81.57;;
14066;SDS011;7108;42.684;23.350;2023-04-01T02:06:41;254.43;;;82.37;;
14066;SDS011;7108;42.684;23.350;2023-04-01T02:09:12;260.47;;;83.27;;
14066;SDS011;7108;42.684;23.350;2023-04-01T02:16:46;238.33;;;79.33;;
14066;SDS011;7108;42.684;23.350;2023-04-01T02:19:13;245.30;;;80.03;;
14066;SDS011;7108;42.684;23.350;2023-04-01T02:21:47;247.07;;;79.90;;
14066;SDS011;7108;42.684;23.350;2023-04-01T02:24:18;240.00;;;78.60;;
14066;SDS011;7108;42.684;23.350;2023-04-01T02:26:47;243.03;;;78.93;;
14066;SDS011;7108;42.684;23.350;2023-04-01T02:29:15;241.87;;;78.47;;
14066;SDS011;7108;42.684;23.350;2023-04-01T02:31:44;255.53;;;83.57;;
14066;SDS011;7108;42.684;23.350;2023-04-01T02:34:10;253.30;;;82.93;;
14066;SDS011;7108;42.684;23.350;2023-04-01T02:36:37;256.30;;;79.13;;
14066;SDS011;7108;42.684;23.350;2023-04-01T02:39:03;253.30;;;78.83;;
14066;SDS011;7108;42.684;23.350;2023-04-01T02:41:30;268.90;;;81.23;;
14066;SDS011;7108;42.684;23.350;2023-04-01T02:43:56;258.13;;;80.90;;
14066;SDS011;7108;42.684;23.350;2023-04-01T02:46:23;261.60;;;83.40;;
14066;SDS011;7108;42.684;23.350;2023-04-01T02:48:49;260.10;;;83.80;;
14066;SDS011;7108;42.684;23.350;2023-04-01T02:51:15;239.63;;;81.23;;
14066;SDS011;7108;42.684;23.350;2023-04-01T02:53:40;238.23;;;81.33;;
14066;SDS011;7108;42.684;23.350;2023-04-01T02:56:05;256.97;;;82.87;;
14066;SDS011;7108;42.684;23.350;2023-04-01T02:58:31;256.17;;;83.17;;
14066;SDS011;7108;42.684;23.350;2023-04-01T03:00:56;254.20;;;80.07;;
14066;SDS011;7108;42.684;23.350;2023-04-01T03:03:22;250.70;;;80.43;;
14066;SDS011;7108;42.684;23.350;2023-04-01T03:05:47;255.67;;;83.53;;
14066;SDS011;7108;42.684;23.350;2023-04-01T03:08:13;233.23;;;77.53;;
14066;SDS011;7108;42.684;23.350;2023-04-01T03:10:38;262.90;;;82.80;;
14066;SDS011;7108;42.684;23.350;2023-04-01T03:13:04;252.07;;;81.87;;
14066;SDS011;7108;42.684;23.350;2023-04-01T03:15:29;245.80;;;79.33;;
14066;SDS011;7108;42.684;23.350;2023-04-01T03:17:55;254.57;;;80.83;;
14066;SDS011;7108;42.684;23.350;2023-04-01T03:20:20;245.90;;;78.27;;
14066;SDS011;7108;42.684;23.350;2023-04-01T03:22:46;240.10;;;82.30;;
14066;SDS011;7108;42.684;23.350;2023-04-01T03:25:11;262.13;;;83.27;;
14066;SDS011;7108;42.684;23.350;2023-04-01T03:27:37;272.27;;;82.20;;
14066;SDS011;7108;42.684;23.350;2023-04-01T03:30:03;257.60;;;80.30;;
14066;SDS011;7108;42.684;23.350;2023-04-01T03:32:29;259.83;;;79.97;;
14066;SDS011;7108;42.684;23.350;2023-04-01T03:34:55;253.43;;;80.80;;
14066;SDS011;7108;42.684;23.350;2023-04-01T03:37:21;252.80;;;80.60;;
14066;SDS011;7108;42.684;23.350;2023-04-01T03:39:46;244.53;;;78.50;;
14066;SDS011;7108;42.684;23.350;2023-04-01T03:42:11;243.80;;;80.10;;
14066;SDS011;7108;42.684;23.350;2023-04-01T03:44:37;258.17;;;80.70;;
14066;SDS011;7108;42.684;23.350;2023-04-01T03:47:02;245.97;;;79.97;;
14066;SDS011;7108;42.684;23.350;2023-04-01T03:49:28;257.77;;;81.27;;
14066;SDS011;7108;42.684;23.350;2023-04-01T03:51:53;255.10;;;82.83;;
14066;SDS011;7108;42.684;23.350;2023-04-01T03:54:19;242.70;;;80.03;;
14066;SDS011;7108;42.684;23.350;2023-04-01T03:56:45;234.10;;;79.53;;
14066;SDS011;7108;42.684;23.350;2023-04-01T03:59:11;249.03;;;80.17;;
14066;SDS011;7108;42.684;23.350;2023-04-01T04:01:36;263.73;;;82.70;;
14066;SDS011;7108;42.684;23.350;2023-04-01T04:04:02;259.93;;;82.53;;
14066;SDS011;7108;42.684;23.350;2023-04-01T04:06:27;256.57;;;80.00;;
14066;SDS011;7108;42.684;23.350;2023-04-01T04:08:53;245.77;;;81.07;;
14066;SDS011;7108;42.684;23.350;2023-04-01T04:11:19;249.63;;;79.90;;
14066;SDS011;7108;42.684;23.350;2023-04-01T04:13:45;240.53;;;79.20;;
14066;SDS011;7108;42.684;23.350;2023-04-01T04:16:13;242.97;;;79.17;;
14066;SDS011;7108;42.684;23.350;2023-04-01T04:18:39;245.43;;;80.13;;
14066;SDS011;7108;42.684;23.350;2023-04-01T04:21:04;251.17;;;81.33;;
14066;SDS011;7108;42.684;23.350;2023-04-01T04:23:30;255.70;;;81.20;;
14066;SDS011;7108;42.684;23.350;2023-04-01T04:28:24;245.33;;;81.03;;
14066;SDS011;7108;42.684;23.350;2023-04-01T04:30:51;242.97;;;79.40;;
14066;SDS011;7108;42.684;23.350;2023-04-01T04:33:18;234.43;;;76.53;;
14066;SDS011;7108;42.684;23.350;2023-04-01T04:35:43;238.60;;;77.67;;
14066;SDS011;7108;42.684;23.350;2023-04-01T04:38:09;259.73;;;80.07;;
14066;SDS011;7108;42.684;23.350;2023-04-01T04:40:38;253.63;;;80.13;;
14066;SDS011;7108;42.684;23.350;2023-04-01T04:43:04;251.70;;;82.10;;
14066;SDS011;7108;42.684;23.350;2023-04-01T04:45:30;261.40;;;81.37;;
14066;SDS011;7108;42.684;23.350;2023-04-01T04:47:56;245.37;;;79.17;;
14066;SDS011;7108;42.684;23.350;2023-04-01T04:50:22;226.00;;;76.60;;
14066;SDS011;7108;42.684;23.350;2023-04-01T04:52:47;231.10;;;80.10;;
14066;SDS011;7108;42.684;23.350;2023-04-01T04:55:13;249.30;;;79.17;;
14066;SDS011;7108;42.684;23.350;2023-04-01T04:57:40;245.53;;;78.43;;
14066;SDS011;7108;42.684;23.350;2023-04-01T05:00:05;243.43;;;77.63;;
14066;SDS011;7108;42.684;23.350;2023-04-01T05:02:32;237.90;;;79.90;;
14066;SDS011;7108;42.684;23.350;2023-04-01T05:04:58;244.97;;;78.27;;
14066;SDS011;7108;42.684;23.350;2023-04-01T05:07:23;247.27;;;79.67;;
14066;SDS011;7108;42.684;23.350;2023-04-01T05:09:48;252.30;;;80.07;;
14066;SDS011;7108;42.684;23.350;2023-04-01T05:12:14;248.87;;;81.43;;
14066;SDS011;7108;42.684;23.350;2023-04-01T05:14:40;283.00;;;85.40;;
14066;SDS011;7108;42.684;23.350;2023-04-01T05:17:08;319.27;;;120.17;;
14066;SDS011;7108;42.684;23.350;2023-04-01T05:19:35;311.50;;;115.73;;
14066;SDS011;7108;42.684;23.350;2023-04-01T05:22:01;270.63;;;89.73;;
14066;SDS011;7108;42.684;23.350;2023-04-01T05:24:26;241.53;;;78.33;;
14066;SDS011;7108;42.684;23.350;2023-04-01T05:26:52;241.07;;;80.07;;
14066;SDS011;7108;42.684;23.350;2023-04-01T05:29:17;251.03;;;80.07;;
14066;SDS011;7108;42.684;23.350;2023-04-01T05:31:42;250.30;;;80.77;;
14066;SDS011;7108;42.684;23.350;2023-04-01T05:34:08;253.77;;;81.47;;
14066;SDS011;7108;42.684;23.350;2023-04-01T05:36:33;261.33;;;82.50;;
14066;SDS011;7108;42.684;23.350;2023-04-01T05:39:00;252.53;;;80.20;;
14066;SDS011;7108;42.684;23.350;2023-04-01T05:41:26;250.00;;;81.80;;
14066;SDS011;7108;42.684;23.350;2023-04-01T05:43:51;256.07;;;82.47;;
14066;SDS011;7108;42.684;23.350;2023-04-01T05:46:16;236.37;;;79.90;;
14066;SDS011;7108;42.684;23.350;2023-04-01T05:48:42;249.47;;;79.37;;
14066;SDS011;7108;42.684;23.350;2023-04-01T05:51:12;253.77;;;81.50;;
14066;SDS011;7108;42.684;23.350;2023-04-01T05:53:38;250.80;;;83.80;;
14066;SDS011;7108;42.684;23.350;2023-04-01T05:56:04;263.90;;;89.80;;
14066;SDS011;7108;42.684;23.350;2023-04-01T05:58:30;254.17;;;95.33;;
14066;SDS011;7108;42.684;23.350;2023-04-01T06:01:00;244.07;;;84.70;;
14066;SDS011;7108;42.684;23.350;2023-04-01T06:03:29;255.93;;;72.77;;
14066;SDS011;7108;42.684;23.350;2023-04-01T06:05:55;255.27;;;78.87;;
14066;SDS011;7108;42.684;23.350;2023-04-01T06:08:20;249.03;;;75.83;;
14066;SDS011;7108;42.684;23.350;2023-04-01T06:11:04;245.90;;;77.43;;
14066;SDS011;7108;42.684;23.350;2023-04-01T06:13:55;238.33;;;73.40;;
14066;SDS011;7108;42.684;23.350;2023-04-01T06:19:11;252.97;;;75.93;;
14066;SDS011;7108;42.684;23.350;2023-04-01T06:26:34;272.13;;;95.00;;
14066;SDS011;7108;42.684;23.350;2023-04-01T06:56:31;261.40;;;83.60;;
14066;SDS011;7108;42.684;23.350;2023-04-01T06:58:59;239.17;;;77.93;;
14066;SDS011;7108;42.684;23.350;2023-04-01T07:04:14;244.90;;;80.03;;
14066;SDS011;7108;42.684;23.350;2023-04-01T07:09:16;230.20;;;75.83;;
14066;SDS011;7108;42.684;23.350;2023-04-01T07:11:45;242.73;;;81.07;;
14066;SDS011;7108;42.684;23.350;2023-04-01T07:14:29;274.67;;;84.47;;
14066;SDS011;7108;42.684;23.350;2023-04-01T07:22:43;286.97;;;90.30;;
14066;SDS011;7108;42.684;23.350;2023-04-01T07:25:15;240.13;;;80.77;;
14066;SDS011;7108;42.684;23.350;2023-04-01T07:27:52;248.97;;;82.83;;
14066;SDS011;7108;42.684;23.350;2023-04-01T07:30:22;252.67;;;83.87;;
14066;SDS011;7108;42.684;23.350;2023-04-01T07:35:59;256.97;;;81.50;;
14066;SDS011;7108;42.684;23.350;2023-04-01T07:41:32;260.60;;;87.07;;
14066;SDS011;7108;42.684;23.350;2023-04-01T07:44:38;259.60;;;82.77;;
14066;SDS011;7108;42.684;23.350;2023-04-01T07:52:58;261.37;;;90.23;;
14066;SDS011;7108;42.684;23.350;2023-04-01T08:03:48;265.33;;;83.47;;
14066;SDS011;7108;42.684;23.350;2023-04-01T08:11:49;253.17;;;83.53;;
14066;SDS011;7108;42.684;23.350;2023-04-01T08:15:32;261.97;;;85.63;;
14066;SDS011;7108;42.684;23.350;2023-04-01T08:23:24;243.53;;;83.93;;
14066;SDS011;7108;42.684;23.350;2023-04-01T08:25:58;244.43;;;85.10;;
14066;SDS011;7108;42.684;23.350;2023-04-01T08:29:31;245.53;;;79.03;;
14066;SDS011;7108;42.684;23.350;2023-04-01T08:31:39;267.23;;;89.50;;
14066;SDS011;7108;42.684;23.350;2023-04-01T08:34:15;262.03;;;88.27;;
14066;SDS011;7108;42.684;23.350;2023-04-01T08:37:07;250.10;;;87.23;;
14066;SDS011;7108;42.684;23.350;2023-04-01T08:39:43;248.97;;;88.60;;
14066;SDS011;7108;42.684;23.350;2023-04-01T08:42:28;251.47;;;89.87;;
14066;SDS011;7108;42.684;23.350;2023-04-01T09:03:46;266.23;;;97.33;;
14066;SDS011;7108;42.684;23.350;2023-04-01T09:36:47;261.27;;;97.23;;
14066;SDS011;7108;42.684;23.350;2023-04-01T09:45:14;257.27;;;94.57;;
14066;SDS011;7108;42.684;23.350;2023-04-01T09:48:46;278.27;;;97.60;;
14066;SDS011;7108;42.684;23.350;2023-04-01T09:51:26;264.23;;;96.13;;
14066;SDS011;7108;42.684;23.350;2023-04-01T10:10:58;256.00;;;92.73;;
14066;SDS011;7108;42.684;23.350;2023-04-01T10:13:30;263.50;;;92.53;;
14066;SDS011;7108;42.684;23.350;2023-04-01T10:19:05;255.50;;;94.57;;
14066;SDS011;7108;42.684;23.350;2023-04-01T10:33:06;263.40;;;90.03;;
14066;SDS011;7108;42.684;23.350;2023-04-01T11:00:51;256.37;;;91.00;;
14066;SDS011;7108;42.684;23.350;2023-04-01T11:23:31;267.73;;;96.97;;
14066;SDS011;7108;42.684;23.350;2023-04-01T11:29:03;265.47;;;96.00;;
14066;SDS011;7108;42.684;23.350;2023-04-01T11:32:13;258.03;;;94.60;;
14066;SDS011;7108;42.684;23.350;2023-04-01T11:35:23;280.40;;;96.37;;
14066;SDS011;7108;42.684;23.350;2023-04-01T11:43:32;243.80;;;88.20;;
14066;SDS011;7108;42.684;23.350;2023-04-01T11:46:07;259.77;;;90.40;;
14066;SDS011;7108;42.684;23.350;2023-04-01T11:51:40;272.53;;;94.70;;
14066;SDS011;7108;42.684;23.350;2023-04-01T12:00:33;247.97;;;80.17;;
14066;SDS011;7108;42.684;23.350;2023-04-01T12:06:40;237.50;;;80.00;;
14066;SDS011;7108;42.684;23.350;2023-04-01T12:17:37;239.60;;;76.07;;
14066;SDS011;7108;42.684;23.350;2023-04-01T12:22:49;249.77;;;79.93;;
14066;SDS011;7108;42.684;23.350;2023-04-01T12:48:00;234.93;;;75.60;;
14066;SDS011;7108;42.684;23.350;2023-04-01T12:55:43;255.90;;;79.60;;
14066;SDS011;7108;42.684;23.350;2023-04-01T13:00:41;236.17;;;76.13;;
14066;SDS011;7108;42.684;23.350;2023-04-01T13:06:26;249.40;;;78.77;;
14066;SDS011;7108;42.684;23.350;2023-04-01T13:09:04;237.10;;;77.83;;
14066;SDS011;7108;42.684;23.350;2023-04-01T13:17:11;277.20;;;82.67;;
14066;SDS011;7108;42.684;23.350;2023-04-01T13:19:49;271.73;;;79.70;;
14066;SDS011;7108;42.684;23.350;2023-04-01T13:25:36;270.57;;;80.57;;
14066;SDS011;7108;42.684;23.350;2023-04-01T13:28:25;282.70;;;83.97;;
14066;SDS011;7108;42.684;23.350;2023-04-01T13:30:59;281.17;;;84.80;;
14066;SDS011;7108;42.684;23.350;2023-04-01T13:33:43;271.60;;;84.57;;
14066;SDS011;7108;42.684;23.350;2023-04-01T13:36:19;284.03;;;91.30;;
14066;SDS011;7108;42.684;23.350;2023-04-01T13:44:41;270.30;;;83.00;;
14066;SDS011;7108;42.684;23.350;2023-04-01T13:46:54;269.17;;;85.43;;
14066;SDS011;7108;42.684;23.350;2023-04-01T14:06:34;266.07;;;83.50;;
14066;SDS011;7108;42.684;23.350;2023-04-01T14:12:13;259.37;;;80.73;;
14066;SDS011;7108;42.684;23.350;2023-04-01T14:23:17;262.40;;;82.63;;
14066;SDS011;7108;42.684;23.350;2023-04-01T14:29:02;296.23;;;87.13;;
14066;SDS011;7108;42.684;23.350;2023-04-01T14:34:26;265.00;;;84.83;;
14066;SDS011;7108;42.684;23.350;2023-04-01T14:37:01;282.67;;;84.83;;
14066;SDS011;7108;42.684;23.350;2023-04-01T14:50:24;273.13;;;88.03;;
14066;SDS011;7108;42.684;23.350;2023-04-01T15:03:32;280.77;;;88.33;;
14066;SDS011;7108;42.684;23.350;2023-04-01T15:09:00;281.00;;;82.27;;
14066;SDS011;7108;42.684;23.350;2023-04-01T15:19:59;280.43;;;87.60;;
14066;SDS011;7108;42.684;23.350;2023-04-01T15:40:24;258.60;;;84.30;;
14066;SDS011;7108;42.684;23.350;2023-04-01T15:43:07;288.73;;;85.97;;
14066;SDS011;7108;42.684;23.350;2023-04-01T15:46:09;281.30;;;87.53;;
14066;SDS011;7108;42.684;23.350;2023-04-01T16:02:21;250.77;;;77.97;;
14066;SDS011;7108;42.684;23.350;2023-04-01T16:13:28;255.53;;;77.77;;
14066;SDS011;7108;42.684;23.350;2023-04-01T16:16:09;270.00;;;78.32;;
14066;SDS011;7108;42.684;23.350;2023-04-01T16:25:05;245.73;;;76.15;;
14066;SDS011;7108;42.684;23.350;2023-04-01T16:32:34;256.27;;;77.30;;
14066;SDS011;7108;42.684;23.350;2023-04-01T16:38:18;267.38;;;78.75;;
14066;SDS011;7108;42.684;23.350;2023-04-01T16:40:58;273.75;;;78.90;;
14066;SDS011;7108;42.684;23.350;2023-04-01T16:43:44;263.73;;;77.72;;
14066;SDS011;7108;42.684;23.350;2023-04-01T16:46:27;242.17;;;74.80;;
14066;SDS011;7108;42.684;23.350;2023-04-01T16:51:23;256.03;;;78.17;;
14066;SDS011;7108;42.684;23.350;2023-04-01T16:53:52;290.50;;;90.27;;
14066;SDS011;7108;42.684;23.350;2023-04-01T16:57:18;257.27;;;78.27;;
14066;SDS011;7108;42.684;23.350;2023-04-01T16:59:33;234.07;;;74.60;;
14066;SDS011;7108;42.684;23.350;2023-04-01T17:10:32;266.95;;;79.32;;
14066;SDS011;7108;42.684;23.350;2023-04-01T17:37:41;243.25;;;74.93;;
14066;SDS011;7108;42.684;23.350;2023-04-01T17:45:49;261.75;;;76.47;;
14066;SDS011;7108;42.684;23.350;2023-04-01T17:48:34;250.30;;;76.93;;
14066;SDS011;7108;42.684;23.350;2023-04-01T17:56:04;279.03;;;80.13;;
14066;SDS011;7108;42.684;23.350;2023-04-01T17:58:54;249.20;;;77.30;;
14066;SDS011;7108;42.684;23.350;2023-04-01T18:04:09;252.85;;;75.80;;
14066;SDS011;7108;42.684;23.350;2023-04-01T18:06:36;250.70;;;78.10;;
14066;SDS011;7108;42.684;23.350;2023-04-01T18:09:37;248.55;;;75.15;;
14066;SDS011;7108;42.684;23.350;2023-04-01T18:25:49;265.95;;;77.45;;
14066;SDS011;7108;42.684;23.350;2023-04-01T18:33:31;249.77;;;77.00;;
14066;SDS011;7108;42.684;23.350;2023-04-01T18:39:07;278.85;;;82.70;;
14066;SDS011;7108;42.684;23.350;2023-04-01T18:44:57;270.60;;;79.68;;
14066;SDS011;7108;42.684;23.350;2023-04-01T18:58:25;258.10;;;77.28;;
14066;SDS011;7108;42.684;23.350;2023-04-01T19:06:48;277.05;;;79.85;;
14066;SDS011;7108;42.684;23.350;2023-04-01T19:12:09;233.98;;;73.97;;
14066;SDS011;7108;42.684;23.350;2023-04-01T19:14:56;261.17;;;80.03;;
14066;SDS011;7108;42.684;23.350;2023-04-01T19:20:17;245.65;;;77.53;;
14066;SDS011;7108;42.684;23.350;2023-04-01T19:26:28;236.43;;;74.43;;
14066;SDS011;7108;42.684;23.350;2023-04-01T19:28:56;244.73;;;77.75;;
14066;SDS011;7108;42.684;23.350;2023-04-01T19:31:50;220.07;;;74.20;;
14066;SDS011;7108;42.684;23.350;2023-04-01T19:39:54;238.93;;;76.57;;
14066;SDS011;7108;42.684;23.350;2023-04-01T19:50:58;219.65;;;73.07;;
14066;SDS011;7108;42.684;23.350;2023-04-01T19:56:07;246.70;;;75.88;;
14066;SDS011;7108;42.684;23.350;2023-04-01T19:58:45;234.05;;;75.80;;
14066;SDS011;7108;42.684;23.350;2023-04-01T20:04:04;251.77;;;76.13;;
14066;SDS011;7108;42.684;23.350;2023-04-01T20:06:41;222.53;;;70.57;;
14066;SDS011;7108;42.684;23.350;2023-04-01T20:12:07;226.90;;;74.07;;
14066;SDS011;7108;42.684;23.350;2023-04-01T20:14:58;232.63;;;74.32;;
14066;SDS011;7108;42.684;23.350;2023-04-01T20:27:49;222.53;;;73.17;;
14066;SDS011;7108;42.684;23.350;2023-04-01T20:41:23;229.67;;;74.17;;
14066;SDS011;7108;42.684;23.350;2023-04-01T20:49:23;226.90;;;71.97;;
14066;SDS011;7108;42.684;23.350;2023-04-01T20:52:02;218.53;;;71.83;;
14066;SDS011;7108;42.684;23.350;2023-04-01T20:54:44;225.03;;;72.60;;
14066;SDS011;7108;42.684;23.350;2023-04-01T20:57:34;214.57;;;69.77;;
14066;SDS011;7108;42.684;23.350;2023-04-01T21:25:01;231.00;;;72.97;;
14066;SDS011;7108;42.684;23.350;2023-04-01T21:30:44;226.50;;;72.78;;
14066;SDS011;7108;42.684;23.350;2023-04-01T21:33:18;234.70;;;75.27;;
14066;SDS011;7108;42.684;23.350;2023-04-01T21:36:10;234.43;;;74.87;;
14066;SDS011;7108;42.684;23.350;2023-04-01T21:44:45;235.65;;;75.30;;
14066;SDS011;7108;42.684;23.350;2023-04-01T21:50:11;232.97;;;73.93;;
14066;SDS011;7108;42.684;23.350;2023-04-01T22:06:20;225.73;;;74.13;;
14066;SDS011;7108;42.684;23.350;2023-04-01T22:11:56;223.10;;;72.20;;
14066;SDS011;7108;42.684;23.350;2023-04-01T22:25:22;222.50;;;72.80;;
14066;SDS011;7108;42.684;23.350;2023-04-01T22:30:56;220.03;;;72.60;;
14066;SDS011;7108;42.684;23.350;2023-04-01T22:33:31;214.20;;;72.38;;
14066;SDS011;7108;42.684;23.350;2023-04-01T22:36:23;234.75;;;75.20;;
14066;SDS011;7108;42.684;23.350;2023-04-01T22:39:05;226.97;;;74.07;;
14066;SDS011;7108;42.684;23.350;2023-04-01T22:52:41;215.80;;;71.93;;
14066;SDS011;7108;42.684;23.350;2023-04-01T22:55:22;240.57;;;74.15;;
14066;SDS011;7108;42.684;23.350;2023-04-01T23:05:42;245.00;;;76.00;;
14066;SDS011;7108;42.684;23.350;2023-04-01T23:11:00;233.60;;;74.35;;
14066;SDS011;7108;42.684;23.350;2023-04-01T23:13:41;222.30;;;73.07;;
14066;SDS011;7108;42.684;23.350;2023-04-01T23:16:13;245.65;;;76.57;;
14066;SDS011;7108;42.684;23.350;2023-04-01T23:18:57;237.27;;;75.45;;
14066;SDS011;7108;42.684;23.350;2023-04-01T23:24:20;234.53;;;75.27;;
14066;SDS011;7108;42.684;23.350;2023-04-01T23:27:03;228.95;;;72.10;;
14066;SDS011;7108;42.684;23.350;2023-04-01T23:29:40;230.50;;;75.88;;
14066;SDS011;7108;42.684;23.350;2023-04-01T23:32:14;232.70;;;73.45;;
14066;SDS011;7108;42.684;23.350;2023-04-01T23:34:45;231.07;;;73.07;;
14066;SDS011;7108;42.684;23.350;2023-04-01T23:37:16;227.10;;;73.72;;
14066;SDS011;7108;42.684;23.350;2023-04-01T23:39:54;227.48;;;74.05;;
14066;SDS011;7108;42.684;23.350;2023-04-01T23:42:23;223.75;;;72.93;;
14066;SDS011;7108;42.684;23.350;2023-04-01T23:45:12;223.00;;;72.95;;
14066;SDS011;7108;42.684;23.350;2023-04-01T23:47:45;237.53;;;74.70;;
14066;SDS011;7108;42.684;23.350;2023-04-01T23:50:16;234.93;;;74.05;;
14066;SDS011;7108;42.684;23.350;2023-04-01T23:53:02;213.48;;;70.90;;
14066;SDS011;7108;42.684;23.350;2023-04-01T23:55:35;223.27;;;72.22;;
